createdAt,value
2018-11-02T00:01:54.886Z,100363.38
2018-11-02T00:04:21.827Z,100372.91
2018-11-02T00:06:48.767Z,100365.55
2018-11-02T00:09:15.710Z,100363.57
2018-11-02T00:11:42.666Z,100367.75
2018-11-02T00:14:09.598Z,100373.60
2018-11-02T00:16:36.454Z,100382.13
2018-11-02T00:19:03.383Z,100385.42
2018-11-02T00:21:30.327Z,100389.18
2018-11-02T00:23:57.171Z,100394.95
2018-11-02T00:26:24.151Z,100398.53
2018-11-02T00:28:51.074Z,100403.58
2018-11-02T00:31:18.012Z,100401.70
2018-11-02T00:33:44.954Z,100400.14
2018-11-02T00:36:11.894Z,100397.57
2018-11-02T00:38:38.844Z,100396.72
2018-11-02T00:41:05.782Z,100389.83
2018-11-02T00:43:32.678Z,100392.40
2018-11-02T00:45:59.598Z,100389.22
2018-11-02T00:48:26.419Z,100390.31
2018-11-02T00:50:53.401Z,100398.51
2018-11-02T00:53:20.303Z,100407.04
2018-11-02T00:55:47.189Z,100408.34
2018-11-02T00:58:14.203Z,100406.14
2018-11-02T01:00:41.184Z,100410.91
2018-11-02T01:03:08.090Z,100408.95
2018-11-02T01:05:35.067Z,100410.94
2018-11-02T01:08:02.020Z,100411.00
2018-11-02T01:10:29.962Z,100413.93
2018-11-02T01:12:56.939Z,100416.95
2018-11-02T01:15:23.867Z,100417.08
2018-11-02T01:17:52.761Z,100419.73
2018-11-02T01:20:19.676Z,100423.20
2018-11-02T01:22:46.637Z,100420.06
2018-11-02T01:25:13.587Z,100427.30
2018-11-02T01:27:40.504Z,100425.00
2018-11-02T01:30:07.464Z,100425.55
2018-11-02T01:32:34.427Z,100420.88
2018-11-02T01:35:01.372Z,100423.69
2018-11-02T01:37:28.298Z,100423.75
2018-11-02T01:39:56.263Z,100418.09
2018-11-02T01:42:23.229Z,100422.95
2018-11-02T01:44:50.161Z,100429.97
2018-11-02T01:47:18.160Z,100431.42
2018-11-02T01:49:45.085Z,100437.06
2018-11-02T01:52:12.065Z,100433.56
2018-11-02T01:54:38.950Z,100434.22
2018-11-02T01:57:09.067Z,100441.69
2018-11-02T01:59:36.056Z,100442.05
2018-11-02T02:02:03.572Z,100442.15
2018-11-02T02:04:30.544Z,100447.52
2018-11-02T02:06:57.472Z,100453.38
2018-11-02T02:09:24.427Z,100454.36
2018-11-02T02:11:51.358Z,100455.97
2018-11-02T02:14:18.310Z,100458.91
2018-11-02T02:16:45.255Z,100458.65
2018-11-02T02:19:12.196Z,100461.84
2018-11-02T02:21:39.164Z,100474.45
2018-11-02T02:24:06.099Z,100482.19
2018-11-02T02:26:34.978Z,100478.81
2018-11-02T02:29:01.957Z,100489.31
2018-11-02T02:31:28.875Z,100492.16
2018-11-02T02:33:55.810Z,100495.13
2018-11-02T02:36:22.750Z,100495.75
2018-11-02T02:38:49.696Z,100499.20
2018-11-02T02:41:16.652Z,100499.16
2018-11-02T02:43:43.599Z,100507.55
2018-11-02T02:46:10.534Z,100501.11
2018-11-02T02:48:37.475Z,100506.11
2018-11-02T02:51:04.959Z,100509.40
2018-11-02T02:53:31.883Z,100502.23
2018-11-02T02:56:00.844Z,100505.68
2018-11-02T02:58:27.822Z,100506.20
2018-11-02T03:00:54.758Z,100511.63
2018-11-02T03:03:21.733Z,100512.85
2018-11-02T03:05:48.655Z,100511.94
2018-11-02T03:08:15.595Z,100514.70
2018-11-02T03:10:42.677Z,100526.69
2018-11-02T03:13:09.493Z,100526.99
2018-11-02T03:15:38.391Z,100529.84
2018-11-02T03:18:07.269Z,100532.03
2018-11-02T03:20:34.210Z,100537.66
2018-11-02T03:23:01.159Z,100543.41
2018-11-02T03:25:28.103Z,100548.53
2018-11-02T03:27:55.047Z,100551.51
2018-11-02T03:30:22.015Z,100557.29
2018-11-02T03:32:50.001Z,100554.32
2018-11-02T03:35:16.949Z,100553.36
2018-11-02T03:37:44.880Z,100561.94
2018-11-02T03:40:11.925Z,100558.62
2018-11-02T03:42:38.930Z,100558.10
2018-11-02T03:45:06.134Z,100568.18
2018-11-02T03:47:33.059Z,100566.23
2018-11-02T03:50:00.029Z,100573.96
2018-11-02T03:52:26.995Z,100571.02
2018-11-02T03:54:54.407Z,100573.06
2018-11-02T03:57:21.351Z,100570.62
2018-11-02T03:59:48.323Z,100573.48
2018-11-02T04:02:15.235Z,100576.78
2018-11-02T04:04:42.183Z,100577.73
2018-11-02T04:07:11.067Z,100576.83
2018-11-02T04:09:38.092Z,100577.17
2018-11-02T04:12:05.115Z,100575.61
2018-11-02T04:14:32.022Z,100572.55
2018-11-02T04:16:59.987Z,100569.32
2018-11-02T04:19:26.927Z,100575.96
2018-11-02T04:21:53.888Z,100586.09
2018-11-02T04:24:20.852Z,100587.98
2018-11-02T04:26:47.769Z,100587.52
2018-11-02T04:29:15.202Z,100598.10
2018-11-02T04:31:42.907Z,100600.00
2018-11-02T04:34:09.920Z,100600.24
2018-11-02T04:36:36.806Z,100616.45
2018-11-02T04:39:06.931Z,100617.14
2018-11-02T04:41:34.102Z,100615.30
2018-11-02T04:44:11.238Z,100622.92
2018-11-02T04:46:38.562Z,100626.28
2018-11-02T04:49:06.848Z,100634.84
2018-11-02T04:51:33.802Z,100637.70
2018-11-02T04:54:04.363Z,100637.84
2018-11-02T04:56:36.537Z,100638.67
2018-11-02T04:59:04.585Z,100641.14
2018-11-02T05:01:32.539Z,100648.91
2018-11-02T05:04:00.510Z,100641.61
2018-11-02T05:06:29.424Z,100638.20
2018-11-02T05:08:58.283Z,100641.86
2018-11-02T05:11:28.329Z,100647.25
2018-11-02T05:13:57.211Z,100646.21
2018-11-02T05:16:26.105Z,100651.98
2018-11-02T05:19:02.610Z,100662.23
2018-11-02T05:21:31.583Z,100653.86
2018-11-02T05:23:59.538Z,100650.55
2018-11-02T05:26:26.475Z,100647.37
2018-11-02T05:28:53.413Z,100650.44
2018-11-02T05:31:21.400Z,100658.20
2018-11-02T05:33:52.859Z,100661.22
2018-11-02T05:36:19.770Z,100667.16
2018-11-02T05:41:44.047Z,100668.45
2018-11-02T05:44:11.502Z,100675.10
2018-11-02T05:46:38.487Z,100674.09
2018-11-02T05:49:15.607Z,100672.20
2018-11-02T05:51:42.512Z,100679.77
2018-11-02T05:54:09.491Z,100688.16
2018-11-02T05:56:38.347Z,100690.83
2018-11-02T05:59:05.278Z,100705.69
2018-11-02T06:01:32.372Z,100701.17
2018-11-02T06:03:59.254Z,100707.02
2018-11-02T06:06:26.243Z,100708.62
2018-11-02T06:08:53.163Z,100710.95
2018-11-02T06:11:20.102Z,100716.31
2018-11-02T06:13:50.210Z,100721.84
2018-11-02T06:16:21.703Z,100723.20
2018-11-02T06:18:48.643Z,100717.24
2018-11-02T06:21:15.582Z,100722.55
2018-11-02T06:23:52.043Z,100728.16
2018-11-02T06:26:20.937Z,100725.94
2018-11-02T06:28:54.945Z,100728.73
2018-11-02T06:31:21.876Z,100745.16
2018-11-02T06:33:55.923Z,100740.75
2018-11-02T06:36:23.863Z,100749.99
2018-11-02T06:38:51.815Z,100753.75
2018-11-02T06:41:20.631Z,100761.32
2018-11-02T06:43:52.982Z,100761.90
2018-11-02T06:46:34.551Z,100764.88
2018-11-02T06:49:01.545Z,100762.33
2018-11-02T06:51:38.055Z,100757.74
2018-11-02T06:54:09.023Z,100760.23
2018-11-02T06:56:39.612Z,100772.09
2018-11-02T06:59:15.468Z,100777.11
2018-11-02T07:01:45.851Z,100786.64
2018-11-02T07:04:12.967Z,100789.44
2018-11-02T07:06:40.852Z,100799.45
2018-11-02T07:09:09.118Z,100812.61
2018-11-02T07:11:36.101Z,100827.10
2018-11-02T07:14:03.007Z,100819.56
2018-11-02T07:16:31.911Z,100818.62
2018-11-02T07:18:58.912Z,100824.91
2018-11-02T07:21:25.809Z,100835.39
2018-11-02T07:23:52.775Z,100836.09
2018-11-02T07:26:19.773Z,100846.38
2018-11-02T07:28:46.733Z,100835.20
2018-11-02T07:31:13.679Z,100835.55
2018-11-02T07:33:41.159Z,100837.41
2018-11-02T07:36:08.084Z,100843.86
2018-11-02T07:38:35.019Z,100841.47
2018-11-02T07:41:02.010Z,100842.26
2018-11-02T07:43:28.907Z,100845.81
2018-11-02T07:45:55.871Z,100849.22
2018-11-02T07:48:22.882Z,100851.11
2018-11-02T07:50:49.779Z,100850.53
2018-11-02T07:53:16.702Z,100846.85
2018-11-02T07:55:43.694Z,100854.16
2018-11-02T07:58:10.587Z,100855.07
2018-11-02T08:00:37.550Z,100864.88
2018-11-02T08:03:04.607Z,100862.42
2018-11-02T08:05:31.520Z,100863.83
2018-11-02T08:08:03.715Z,100871.61
2018-11-02T08:10:30.627Z,100877.03
2018-11-02T08:12:57.566Z,100875.38
2018-11-02T08:15:24.555Z,100877.37
2018-11-02T08:17:51.484Z,100879.90
2018-11-02T08:20:18.406Z,100875.21
2018-11-02T08:22:45.351Z,100890.59
2018-11-02T08:25:12.499Z,100889.19
2018-11-02T08:27:39.667Z,100897.08
2018-11-02T08:30:07.549Z,100888.23
2018-11-02T08:32:34.479Z,100886.34
2018-11-02T08:35:01.412Z,100884.16
2018-11-02T08:37:28.355Z,100878.69
2018-11-02T08:39:55.293Z,100882.01
2018-11-02T08:42:23.226Z,100877.64
2018-11-02T08:44:50.112Z,100876.14
2018-11-02T08:47:17.059Z,100877.40
2018-11-02T08:49:44.015Z,100885.78
2018-11-02T08:52:12.943Z,100882.04
2018-11-02T08:54:39.848Z,100885.02
2018-11-02T08:57:06.771Z,100884.89
2018-11-02T08:59:34.019Z,100886.19
2018-11-02T09:02:00.650Z,100886.79
2018-11-02T09:04:27.620Z,100888.48
2018-11-02T09:06:54.556Z,100891.77
2018-11-02T09:09:21.491Z,100889.25
2018-11-02T09:11:48.443Z,100885.72
2018-11-02T09:14:15.439Z,100885.45
2018-11-02T09:16:42.342Z,100884.75
2018-11-02T09:19:09.367Z,100874.34
2018-11-02T09:21:36.224Z,100880.26
2018-11-02T09:24:03.163Z,100882.22
2018-11-02T09:26:30.123Z,100880.67
2018-11-02T09:28:57.052Z,100875.88
2018-11-02T09:31:24.179Z,100873.45
2018-11-02T09:33:51.059Z,100869.16
2018-11-02T09:36:18.000Z,100873.20
2018-11-02T09:38:44.971Z,100876.24
2018-11-02T09:41:11.883Z,100876.65
2018-11-02T09:43:42.548Z,100873.94
2018-11-02T09:46:09.458Z,100874.08
2018-11-02T09:48:36.395Z,100878.86
2018-11-02T09:51:05.306Z,100881.66
2018-11-02T09:53:32.231Z,100885.11
2018-11-02T09:55:59.242Z,100887.37
2018-11-02T09:58:26.126Z,100880.72
2018-11-02T10:00:54.120Z,100883.65
2018-11-02T10:03:21.874Z,100895.63
2018-11-02T10:05:48.811Z,100891.59
2018-11-02T10:08:15.806Z,100894.06
2018-11-02T10:10:42.693Z,100892.38
2018-11-02T10:13:09.643Z,100894.37
2018-11-02T10:15:36.578Z,100894.73
2018-11-02T10:18:03.527Z,100890.45
2018-11-02T10:20:30.471Z,100886.53
2018-11-02T10:22:57.459Z,100889.19
2018-11-02T10:25:24.366Z,100889.59
2018-11-02T10:27:52.229Z,100887.22
2018-11-02T10:30:20.110Z,100888.60
2018-11-02T10:32:49.692Z,100879.23
2018-11-02T10:35:16.611Z,100885.55
2018-11-02T10:37:43.494Z,100886.96
2018-11-02T10:40:13.399Z,100885.64
2018-11-02T10:42:41.067Z,100893.75
2018-11-02T10:45:08.019Z,100894.90
2018-11-02T10:47:34.963Z,100891.23
2018-11-02T10:50:01.928Z,100893.08
2018-11-02T10:52:28.847Z,100892.26
2018-11-02T10:54:55.799Z,100888.60
2018-11-02T10:57:22.764Z,100889.77
2018-11-02T10:59:49.671Z,100874.78
2018-11-02T11:02:22.347Z,100875.49
2018-11-02T11:04:49.299Z,100878.87
2018-11-02T11:07:16.291Z,100881.70
2018-11-02T11:09:43.187Z,100885.52
2018-11-02T11:12:10.234Z,100875.95
2018-11-02T11:14:37.087Z,100878.41
2018-11-02T11:17:04.155Z,100876.61
2018-11-02T11:19:31.189Z,100874.51
2018-11-02T11:21:58.138Z,100879.42
2018-11-02T11:24:25.197Z,100881.20
2018-11-02T11:26:52.119Z,100871.77
2018-11-02T11:29:21.040Z,100875.09
2018-11-02T11:31:47.965Z,100868.70
2018-11-02T11:34:14.927Z,100878.20
2018-11-02T11:36:41.895Z,100882.62
2018-11-02T11:39:10.520Z,100880.53
2018-11-02T11:41:37.467Z,100879.89
2018-11-02T11:44:04.408Z,100888.41
2018-11-02T11:46:31.367Z,100891.92
2018-11-02T11:48:58.552Z,100875.13
2018-11-02T11:51:25.503Z,100880.87
2018-11-02T11:53:52.563Z,100879.14
2018-11-02T11:56:19.447Z,100879.34
2018-11-02T11:58:46.381Z,100878.51
2018-11-02T12:01:13.339Z,100873.27
2018-11-02T12:03:40.295Z,100877.21
2018-11-02T12:06:08.251Z,100872.77
2018-11-02T12:08:35.186Z,100869.17
2018-11-02T12:11:03.055Z,100870.16
2018-11-02T12:13:30.019Z,100880.41
2018-11-02T12:15:57.036Z,100880.48
2018-11-02T12:18:23.902Z,100875.23
2018-11-02T12:20:50.843Z,100861.07
2018-11-02T12:23:17.888Z,100868.58
2018-11-02T12:25:44.755Z,100869.56
2018-11-02T12:28:11.720Z,100882.02
2018-11-02T12:30:38.634Z,100882.34
2018-11-02T12:33:05.550Z,100887.87
2018-11-02T12:35:32.509Z,100895.12
2018-11-02T12:37:59.451Z,100897.84
2018-11-02T12:40:26.442Z,100903.67
2018-11-02T12:42:54.320Z,100906.69
2018-11-02T12:45:21.718Z,100907.28
2018-11-02T12:47:49.118Z,100916.03
2018-11-02T12:50:19.367Z,100906.07
2018-11-02T12:52:47.258Z,100907.24
2018-11-02T12:55:14.858Z,100905.02
2018-11-02T12:57:42.770Z,100896.30
2018-11-02T13:00:21.110Z,100891.48
2018-11-02T13:02:48.653Z,100894.93
2018-11-02T13:05:15.598Z,100896.07
2018-11-02T13:07:42.579Z,100902.09
2018-11-02T13:10:10.527Z,100910.63
2018-11-02T13:12:37.488Z,100914.49
2018-11-02T13:15:05.795Z,100922.42
2018-11-02T13:17:32.754Z,100926.05
2018-11-02T13:19:59.618Z,100917.38
2018-11-02T13:22:26.563Z,100913.44
2018-11-02T13:24:53.554Z,100912.13
2018-11-02T13:27:20.455Z,100909.35
2018-11-02T13:29:47.406Z,100905.73
2018-11-02T13:32:14.345Z,100899.84
2018-11-02T13:34:41.287Z,100895.73
2018-11-02T13:37:08.368Z,100894.93
2018-11-02T13:39:35.182Z,100898.02
2018-11-02T13:42:02.123Z,100905.73
2018-11-02T13:44:29.062Z,100915.24
2018-11-02T13:46:55.910Z,100920.45
2018-11-02T13:49:22.852Z,100924.28
2018-11-02T13:51:49.794Z,100923.95
2018-11-02T13:54:16.767Z,100920.64
2018-11-02T13:56:43.707Z,100914.88
2018-11-02T13:59:10.662Z,100917.69
2018-11-02T14:01:37.614Z,100918.70
2018-11-02T14:04:04.675Z,100909.70
2018-11-02T14:06:31.571Z,100902.82
2018-11-02T14:08:58.529Z,100910.84
2018-11-02T14:11:25.502Z,100907.20
2018-11-02T14:13:52.406Z,100910.02
2018-11-02T14:16:19.375Z,100911.13
2018-11-02T14:18:46.287Z,100920.19
2018-11-02T14:21:13.234Z,100926.25
2018-11-02T14:23:40.191Z,100935.09
2018-11-02T14:26:07.326Z,100936.06
2018-11-02T14:28:34.274Z,100940.39
2018-11-02T14:31:01.227Z,100942.84
2018-11-02T14:33:28.176Z,100948.76
2018-11-02T14:35:55.108Z,100942.08
2018-11-02T14:38:22.050Z,100940.61
2018-11-02T14:40:48.909Z,100942.34
2018-11-02T14:43:15.839Z,100946.87
2018-11-02T14:45:42.693Z,100954.48
2018-11-02T14:48:10.555Z,100951.69
2018-11-02T14:50:38.407Z,100954.41
2018-11-02T14:53:05.251Z,100949.58
2018-11-02T14:55:32.203Z,100954.30
2018-11-02T14:57:59.142Z,100959.00
2018-11-02T15:00:27.034Z,100967.84
2018-11-02T15:02:53.966Z,100971.09
2018-11-02T15:05:20.914Z,100970.00
2018-11-02T15:07:47.862Z,100968.55
2018-11-02T15:10:16.739Z,100983.22
2018-11-02T15:12:44.622Z,100987.69
2018-11-02T15:15:11.559Z,100988.03
2018-11-02T15:17:38.803Z,100992.73
2018-11-02T15:20:08.040Z,101004.26
2018-11-02T15:22:34.958Z,101003.89
2018-11-02T15:25:01.892Z,101000.95
2018-11-02T15:27:28.825Z,101001.31
2018-11-02T15:29:55.690Z,100999.75
2018-11-02T15:32:22.622Z,101005.57
2018-11-02T15:34:49.568Z,101011.75
2018-11-02T15:37:16.564Z,101013.80
2018-11-02T15:39:43.541Z,101015.19
2018-11-02T15:42:10.422Z,101011.77
2018-11-02T15:44:37.457Z,101011.88
2018-11-02T15:47:04.590Z,101020.79
2018-11-02T15:51:57.866Z,101021.73
2018-11-02T15:54:24.710Z,101022.48
2018-11-02T15:56:51.700Z,101024.73
2018-11-02T15:59:18.762Z,101028.33
2018-11-02T16:01:45.650Z,101032.63
2018-11-02T16:04:12.908Z,101037.11
2018-11-02T16:06:39.884Z,101034.23
2018-11-02T16:09:12.111Z,101043.83
2018-11-02T16:11:38.974Z,101055.11
2018-11-02T16:14:06.032Z,101056.74
2018-11-02T16:16:33.115Z,101064.87
2018-11-02T16:19:00.040Z,101064.00
2018-11-02T16:21:26.955Z,101064.22
2018-11-02T16:23:53.942Z,101063.59
2018-11-02T16:26:20.919Z,101071.80
2018-11-02T16:28:48.716Z,101072.96
2018-11-02T16:31:15.650Z,101073.30
2018-11-02T16:33:42.515Z,101082.91
2018-11-02T16:36:09.542Z,101084.02
2018-11-02T16:38:36.491Z,101083.94
2018-11-02T16:41:03.454Z,101083.89
2018-11-02T16:43:30.463Z,101101.25
2018-11-02T16:45:57.390Z,101106.55
2018-11-02T16:48:24.278Z,101100.02
2018-11-02T16:50:51.214Z,101105.09
2018-11-02T16:53:18.178Z,101101.37
2018-11-02T16:55:45.128Z,101093.45
2018-11-02T16:58:12.039Z,101109.55
2018-11-02T17:00:38.982Z,101121.87
2018-11-02T17:03:05.935Z,101125.70
2018-11-02T17:05:32.883Z,101140.20
2018-11-02T17:08:00.826Z,101146.91
2018-11-02T17:10:27.692Z,101147.52
2018-11-02T17:12:54.639Z,101159.14
2018-11-02T17:15:21.682Z,101166.77
2018-11-02T17:17:48.630Z,101167.45
2018-11-02T17:20:17.360Z,101169.78
2018-11-02T17:22:44.451Z,101174.17
2018-11-02T17:25:11.924Z,101176.98
2018-11-02T17:27:39.107Z,101180.14
2018-11-02T17:30:07.667Z,101177.01
2018-11-02T17:32:34.626Z,101176.66
2018-11-02T17:35:01.546Z,101183.44
2018-11-02T17:37:28.523Z,101193.87
2018-11-02T17:39:55.418Z,101198.25
2018-11-02T17:42:22.433Z,101207.78
2018-11-02T17:44:49.331Z,101209.27
2018-11-02T17:47:16.250Z,101211.50
2018-11-02T17:49:43.158Z,101204.28
2018-11-02T17:52:10.043Z,101205.88
2018-11-02T17:54:36.999Z,101210.39
2018-11-02T17:57:04.273Z,101212.31
2018-11-02T17:59:31.565Z,101214.73
2018-11-02T18:01:58.443Z,101214.18
2018-11-02T18:04:25.429Z,101207.27
2018-11-02T18:06:52.420Z,101213.70
2018-11-02T18:09:19.274Z,101216.09
2018-11-02T18:11:46.128Z,101216.26
2018-11-02T18:14:13.061Z,101212.70
2018-11-02T18:16:39.922Z,101215.30
2018-11-02T18:19:06.844Z,101217.81
2018-11-02T18:21:33.694Z,101221.98
2018-11-02T18:24:00.634Z,101230.74
2018-11-02T18:26:27.595Z,101228.71
2018-11-02T18:28:54.663Z,101234.23
2018-11-02T18:31:21.567Z,101234.01
2018-11-02T18:33:48.430Z,101236.92
2018-11-02T18:36:15.359Z,101240.57
2018-11-02T18:38:42.303Z,101238.88
2018-11-02T18:41:09.162Z,101246.05
2018-11-02T18:43:36.099Z,101237.13
2018-11-02T18:46:03.064Z,101244.00
2018-11-02T18:48:30.048Z,101243.87
2018-11-02T18:50:56.926Z,101248.16
2018-11-02T18:53:23.907Z,101245.95
2018-11-02T18:55:50.815Z,101250.59
2018-11-02T18:58:17.759Z,101257.83
2018-11-02T19:00:44.719Z,101257.70
2018-11-02T19:03:11.648Z,101260.05
2018-11-02T19:05:38.655Z,101258.41
2018-11-02T19:08:05.534Z,101256.50
2018-11-02T19:10:32.487Z,101260.34
2018-11-02T19:12:59.422Z,101270.17
2018-11-02T19:15:26.291Z,101271.48
2018-11-02T19:17:54.151Z,101275.52
2018-11-02T19:20:21.146Z,101275.19
2018-11-02T19:22:48.025Z,101285.95
2018-11-02T19:25:15.635Z,101291.88
2018-11-02T19:27:43.125Z,101301.69
2018-11-02T19:30:10.806Z,101299.55
2018-11-02T19:32:37.799Z,101309.39
2018-11-02T19:35:05.117Z,101311.27
2018-11-02T19:37:31.955Z,101315.54
2018-11-02T19:39:58.921Z,101316.48
2018-11-02T19:42:25.874Z,101310.44
2018-11-02T19:44:52.827Z,101321.55
2018-11-02T19:47:19.734Z,101336.58
2018-11-02T19:49:46.670Z,101342.26
2018-11-02T19:52:14.539Z,101349.21
2018-11-02T19:54:41.484Z,101341.05
2018-11-02T19:57:08.430Z,101348.16
2018-11-02T19:59:35.445Z,101350.38
2018-11-02T20:02:02.333Z,101357.35
2018-11-02T20:04:30.182Z,101363.38
2018-11-02T20:06:57.147Z,101346.13
2018-11-02T20:09:24.120Z,101366.69
2018-11-02T20:11:51.038Z,101376.38
2018-11-02T20:14:17.988Z,101366.22
2018-11-02T20:16:44.919Z,101369.88
2018-11-02T20:19:11.898Z,101370.83
2018-11-02T20:21:38.707Z,101372.33
2018-11-02T20:24:05.637Z,101380.45
2018-11-02T20:26:32.539Z,101386.71
2018-11-02T20:28:59.371Z,101383.25
2018-11-02T20:31:26.286Z,101385.38
2018-11-02T20:33:53.231Z,101390.69
2018-11-02T20:36:20.167Z,101385.13
2018-11-02T20:38:47.187Z,101385.83
2018-11-02T20:41:14.042Z,101388.91
2018-11-02T20:43:40.998Z,101385.67
2018-11-02T20:46:07.937Z,101380.11
2018-11-02T20:48:34.780Z,101383.89
2018-11-02T20:51:01.720Z,101382.83
2018-11-02T20:53:28.695Z,101389.39
2018-11-02T20:55:55.606Z,101392.12
2018-11-02T20:58:22.479Z,101394.59
2018-11-02T21:00:49.398Z,101401.44
2018-11-02T21:03:16.379Z,101395.65
2018-11-02T21:05:43.379Z,101407.81
2018-11-02T21:08:10.383Z,101396.95
2018-11-02T21:10:37.186Z,101407.67
2018-11-02T21:13:04.404Z,101400.38
2018-11-02T21:15:31.283Z,101407.40
2018-11-02T21:17:58.211Z,101403.45
2018-11-02T21:20:25.831Z,101411.17
2018-11-02T21:22:53.754Z,101416.36
2018-11-02T21:25:20.686Z,101417.97
2018-11-02T21:27:47.941Z,101426.94
2018-11-02T21:30:16.423Z,101430.61
2018-11-02T21:32:44.191Z,101434.38
2018-11-02T21:35:11.138Z,101428.48
2018-11-02T21:37:38.294Z,101431.89
2018-11-02T21:40:07.078Z,101430.41
2018-11-02T21:42:34.050Z,101431.21
2018-11-02T21:45:00.959Z,101427.42
2018-11-02T21:47:27.914Z,101421.88
2018-11-02T21:49:55.770Z,101426.19
2018-11-02T21:52:22.621Z,101419.09
2018-11-02T21:54:49.566Z,101418.02
2018-11-02T21:57:16.506Z,101428.89
2018-11-02T21:59:44.483Z,101427.59
2018-11-02T22:02:11.315Z,101420.42
2018-11-02T22:04:38.467Z,101427.16
2018-11-02T22:07:05.411Z,101432.12
2018-11-02T22:09:32.354Z,101425.05
2018-11-02T22:11:59.299Z,101430.33
2018-11-02T22:14:26.243Z,101424.78
2018-11-02T22:16:53.207Z,101437.18
2018-11-02T22:19:20.199Z,101435.63
2018-11-02T22:21:47.074Z,101442.02
2018-11-02T22:24:13.934Z,101447.78
2018-11-02T22:26:40.863Z,101442.02
2018-11-02T22:29:08.058Z,101436.35
2018-11-02T22:34:12.607Z,101433.42
2018-11-02T22:36:39.524Z,101445.33
2018-11-02T22:39:07.375Z,101446.84
2018-11-02T22:41:34.339Z,101446.41
2018-11-02T22:44:01.252Z,101438.95
2018-11-02T22:46:28.207Z,101442.64
2018-11-02T22:48:55.160Z,101441.88
2018-11-02T22:51:22.018Z,101445.70
2018-11-02T22:53:48.866Z,101445.81
2018-11-02T22:56:15.774Z,101447.11
2018-11-02T22:58:42.715Z,101447.64
2018-11-02T23:01:15.398Z,101442.81
2018-11-02T23:03:42.351Z,101442.89
2018-11-02T23:06:09.306Z,101446.02
2018-11-02T23:08:36.291Z,101450.02
2018-11-02T23:11:03.223Z,101455.62
2018-11-02T23:13:30.135Z,101446.14
2018-11-02T23:15:56.996Z,101460.06
2018-11-02T23:18:23.911Z,101455.80
2018-11-02T23:20:50.859Z,101450.91
2018-11-02T23:23:17.802Z,101453.03
2018-11-02T23:25:44.739Z,101459.73
2018-11-02T23:28:11.703Z,101452.64
2018-11-02T23:30:38.634Z,101450.63
2018-11-02T23:33:05.578Z,101446.41
2018-11-02T23:35:32.530Z,101438.05
2018-11-02T23:38:00.391Z,101437.80
2018-11-02T23:40:27.340Z,101444.63
2018-11-02T23:42:54.287Z,101440.33
2018-11-02T23:45:21.229Z,101437.51
2018-11-02T23:47:53.802Z,101435.02
2018-11-02T23:50:20.754Z,101427.81
2018-11-02T23:52:47.694Z,101439.59
2018-11-02T23:55:14.643Z,101437.10
2018-11-02T23:57:41.585Z,101442.91
